sensor_id;sensor_type;location;lat;lon;timestamp;P1;durP1;ratioP1;P2;durP2;ratioP2
3815;SDS011;1923;48.154;11.536;2023-05-19T00:00:47;11.10;;;4.20;;
3815;SDS011;1923;48.154;11.536;2023-05-19T00:03:17;5.30;;;3.90;;
3815;SDS011;1923;48.154;11.536;2023-05-19T00:05:47;9.40;;;4.40;;
3815;SDS011;1923;48.154;11.536;2023-05-19T00:08:15;7.63;;;3.60;;
3815;SDS011;1923;48.154;11.536;2023-05-19T00:10:45;6.03;;;3.90;;
3815;SDS011;1923;48.154;11.536;2023-05-19T00:13:14;9.87;;;4.20;;
3815;SDS011;1923;48.154;11.536;2023-05-19T00:15:42;9.80;;;4.57;;
3815;SDS011;1923;48.154;11.536;2023-05-19T00:18:11;7.30;;;4.00;;
3815;SDS011;1923;48.154;11.536;2023-05-19T00:20:41;6.37;;;3.53;;
3815;SDS011;1923;48.154;11.536;2023-05-19T00:23:09;8.63;;;3.93;;
3815;SDS011;1923;48.154;11.536;2023-05-19T00:25:37;5.10;;;3.83;;
3815;SDS011;1923;48.154;11.536;2023-05-19T00:28:05;7.63;;;3.67;;
3815;SDS011;1923;48.154;11.536;2023-05-19T00:30:33;7.45;;;4.75;;
3815;SDS011;1923;48.154;11.536;2023-05-19T00:33:01;12.13;;;4.07;;
3815;SDS011;1923;48.154;11.536;2023-05-19T00:35:29;5.43;;;3.80;;
3815;SDS011;1923;48.154;11.536;2023-05-19T00:37:59;9.53;;;3.77;;
3815;SDS011;1923;48.154;11.536;2023-05-19T00:40:27;7.60;;;3.93;;
3815;SDS011;1923;48.154;11.536;2023-05-19T00:42:58;10.67;;;5.10;;
3815;SDS011;1923;48.154;11.536;2023-05-19T00:45:26;10.87;;;4.33;;
3815;SDS011;1923;48.154;11.536;2023-05-19T00:47:55;5.60;;;3.17;;
3815;SDS011;1923;48.154;11.536;2023-05-19T00:50:23;10.00;;;3.20;;
3815;SDS011;1923;48.154;11.536;2023-05-19T00:52:52;6.67;;;3.90;;
3815;SDS011;1923;48.154;11.536;2023-05-19T00:55:23;9.93;;;4.67;;
3815;SDS011;1923;48.154;11.536;2023-05-19T00:57:55;6.60;;;3.93;;
3815;SDS011;1923;48.154;11.536;2023-05-19T01:00:24;6.30;;;4.00;;
3815;SDS011;1923;48.154;11.536;2023-05-19T01:02:52;7.83;;;4.20;;
3815;SDS011;1923;48.154;11.536;2023-05-19T01:05:21;5.60;;;3.10;;
3815;SDS011;1923;48.154;11.536;2023-05-19T01:07:49;5.07;;;3.67;;
3815;SDS011;1923;48.154;11.536;2023-05-19T01:10:18;5.43;;;3.87;;
3815;SDS011;1923;48.154;11.536;2023-05-19T01:12:48;6.10;;;3.87;;
3815;SDS011;1923;48.154;11.536;2023-05-19T01:15:16;9.57;;;4.30;;
3815;SDS011;1923;48.154;11.536;2023-05-19T01:17:46;5.40;;;3.43;;
3815;SDS011;1923;48.154;11.536;2023-05-19T01:20:21;7.83;;;3.27;;
3815;SDS011;1923;48.154;11.536;2023-05-19T01:26:03;8.27;;;4.23;;
3815;SDS011;1923;48.154;11.536;2023-05-19T01:28:52;5.50;;;3.30;;
3815;SDS011;1923;48.154;11.536;2023-05-19T01:31:50;5.10;;;4.00;;
3815;SDS011;1923;48.154;11.536;2023-05-19T01:34:20;6.37;;;4.13;;
3815;SDS011;1923;48.154;11.536;2023-05-19T01:36:53;8.90;;;3.70;;
3815;SDS011;1923;48.154;11.536;2023-05-19T01:39:22;8.23;;;3.47;;
3815;SDS011;1923;48.154;11.536;2023-05-19T01:41:51;5.47;;;3.67;;
3815;SDS011;1923;48.154;11.536;2023-05-19T01:44:20;7.43;;;3.90;;
3815;SDS011;1923;48.154;11.536;2023-05-19T01:46:51;6.70;;;3.70;;
3815;SDS011;1923;48.154;11.536;2023-05-19T01:49:20;6.67;;;4.00;;
3815;SDS011;1923;48.154;11.536;2023-05-19T01:51:48;6.57;;;3.37;;
3815;SDS011;1923;48.154;11.536;2023-05-19T01:54:16;6.30;;;4.10;;
3815;SDS011;1923;48.154;11.536;2023-05-19T01:56:45;9.33;;;3.70;;
3815;SDS011;1923;48.154;11.536;2023-05-19T01:59:26;9.90;;;4.10;;
3815;SDS011;1923;48.154;11.536;2023-05-19T02:02:04;6.73;;;4.33;;
3815;SDS011;1923;48.154;11.536;2023-05-19T02:04:38;6.70;;;3.80;;
3815;SDS011;1923;48.154;11.536;2023-05-19T02:07:16;9.10;;;3.77;;
3815;SDS011;1923;48.154;11.536;2023-05-19T02:09:52;7.80;;;3.90;;
3815;SDS011;1923;48.154;11.536;2023-05-19T02:12:24;4.83;;;3.70;;
3815;SDS011;1923;48.154;11.536;2023-05-19T02:14:59;7.77;;;4.20;;
3815;SDS011;1923;48.154;11.536;2023-05-19T02:17:33;6.80;;;3.13;;
3815;SDS011;1923;48.154;11.536;2023-05-19T02:20:04;8.53;;;4.00;;
3815;SDS011;1923;48.154;11.536;2023-05-19T02:22:33;6.77;;;4.03;;
3815;SDS011;1923;48.154;11.536;2023-05-19T02:25:02;11.07;;;4.00;;
3815;SDS011;1923;48.154;11.536;2023-05-19T02:27:30;8.27;;;4.50;;
3815;SDS011;1923;48.154;11.536;2023-05-19T02:29:58;5.63;;;3.50;;
3815;SDS011;1923;48.154;11.536;2023-05-19T02:32:26;6.50;;;4.40;;
3815;SDS011;1923;48.154;11.536;2023-05-19T02:34:56;6.53;;;3.87;;
3815;SDS011;1923;48.154;11.536;2023-05-19T02:37:24;7.40;;;4.40;;
3815;SDS011;1923;48.154;11.536;2023-05-19T02:39:53;5.60;;;3.40;;
3815;SDS011;1923;48.154;11.536;2023-05-19T02:42:22;5.97;;;3.83;;
3815;SDS011;1923;48.154;11.536;2023-05-19T02:44:50;5.63;;;4.23;;
3815;SDS011;1923;48.154;11.536;2023-05-19T02:47:19;6.50;;;4.07;;
3815;SDS011;1923;48.154;11.536;2023-05-19T02:49:47;5.83;;;4.20;;
3815;SDS011;1923;48.154;11.536;2023-05-19T02:52:17;8.97;;;3.93;;
3815;SDS011;1923;48.154;11.536;2023-05-19T02:54:45;4.47;;;3.77;;
3815;SDS011;1923;48.154;11.536;2023-05-19T02:57:13;5.77;;;4.17;;
3815;SDS011;1923;48.154;11.536;2023-05-19T02:59:41;11.03;;;3.87;;
3815;SDS011;1923;48.154;11.536;2023-05-19T03:02:09;7.60;;;3.90;;
3815;SDS011;1923;48.154;11.536;2023-05-19T03:04:37;12.03;;;4.70;;
3815;SDS011;1923;48.154;11.536;2023-05-19T03:07:08;8.50;;;4.43;;
3815;SDS011;1923;48.154;11.536;2023-05-19T03:09:40;7.50;;;3.90;;
3815;SDS011;1923;48.154;11.536;2023-05-19T03:12:08;7.67;;;5.07;;
3815;SDS011;1923;48.154;11.536;2023-05-19T03:14:36;9.27;;;3.90;;
3815;SDS011;1923;48.154;11.536;2023-05-19T03:17:04;9.00;;;4.07;;
3815;SDS011;1923;48.154;11.536;2023-05-19T03:19:35;7.20;;;3.83;;
3815;SDS011;1923;48.154;11.536;2023-05-19T03:22:03;5.83;;;3.70;;
3815;SDS011;1923;48.154;11.536;2023-05-19T03:24:32;6.87;;;4.50;;
3815;SDS011;1923;48.154;11.536;2023-05-19T03:27:01;7.97;;;4.50;;
3815;SDS011;1923;48.154;11.536;2023-05-19T03:29:30;8.03;;;4.50;;
3815;SDS011;1923;48.154;11.536;2023-05-19T03:31:58;8.63;;;4.37;;
3815;SDS011;1923;48.154;11.536;2023-05-19T03:34:27;6.20;;;4.30;;
3815;SDS011;1923;48.154;11.536;2023-05-19T03:36:55;7.40;;;5.20;;
3815;SDS011;1923;48.154;11.536;2023-05-19T03:39:23;5.13;;;4.00;;
3815;SDS011;1923;48.154;11.536;2023-05-19T03:41:51;17.47;;;5.13;;
3815;SDS011;1923;48.154;11.536;2023-05-19T03:44:20;6.67;;;4.27;;
3815;SDS011;1923;48.154;11.536;2023-05-19T03:46:48;7.47;;;4.30;;
3815;SDS011;1923;48.154;11.536;2023-05-19T03:49:16;11.50;;;4.97;;
3815;SDS011;1923;48.154;11.536;2023-05-19T03:51:44;6.97;;;4.60;;
3815;SDS011;1923;48.154;11.536;2023-05-19T03:54:12;8.10;;;4.63;;
3815;SDS011;1923;48.154;11.536;2023-05-19T03:56:40;7.90;;;4.33;;
3815;SDS011;1923;48.154;11.536;2023-05-19T03:59:09;5.40;;;3.70;;
3815;SDS011;1923;48.154;11.536;2023-05-19T04:01:39;6.93;;;4.30;;
3815;SDS011;1923;48.154;11.536;2023-05-19T04:04:06;10.60;;;5.07;;
3815;SDS011;1923;48.154;11.536;2023-05-19T04:06:35;9.43;;;4.50;;
3815;SDS011;1923;48.154;11.536;2023-05-19T04:09:09;8.83;;;4.60;;
3815;SDS011;1923;48.154;11.536;2023-05-19T04:11:39;7.67;;;4.00;;
3815;SDS011;1923;48.154;11.536;2023-05-19T04:14:07;6.20;;;4.20;;
3815;SDS011;1923;48.154;11.536;2023-05-19T04:16:35;12.30;;;5.40;;
3815;SDS011;1923;48.154;11.536;2023-05-19T04:19:05;4.77;;;3.47;;
3815;SDS011;1923;48.154;11.536;2023-05-19T04:21:33;7.63;;;4.77;;
3815;SDS011;1923;48.154;11.536;2023-05-19T04:24:02;6.80;;;3.83;;
3815;SDS011;1923;48.154;11.536;2023-05-19T04:26:31;7.07;;;4.23;;
3815;SDS011;1923;48.154;11.536;2023-05-19T04:28:59;6.53;;;4.37;;
3815;SDS011;1923;48.154;11.536;2023-05-19T04:31:30;6.47;;;4.30;;
3815;SDS011;1923;48.154;11.536;2023-05-19T04:33:59;8.57;;;4.70;;
3815;SDS011;1923;48.154;11.536;2023-05-19T04:36:29;10.73;;;4.63;;
3815;SDS011;1923;48.154;11.536;2023-05-19T04:38:59;12.47;;;4.60;;
3815;SDS011;1923;48.154;11.536;2023-05-19T04:41:31;6.50;;;4.20;;
3815;SDS011;1923;48.154;11.536;2023-05-19T04:44:00;10.60;;;5.30;;
3815;SDS011;1923;48.154;11.536;2023-05-19T04:46:28;10.77;;;4.63;;
3815;SDS011;1923;48.154;11.536;2023-05-19T04:48:56;5.57;;;3.80;;
3815;SDS011;1923;48.154;11.536;2023-05-19T04:51:26;8.48;;;4.70;;
3815;SDS011;1923;48.154;11.536;2023-05-19T04:53:58;10.73;;;4.67;;
3815;SDS011;1923;48.154;11.536;2023-05-19T04:56:27;14.20;;;5.13;;
3815;SDS011;1923;48.154;11.536;2023-05-19T04:58:55;8.25;;;4.15;;
3815;SDS011;1923;48.154;11.536;2023-05-19T05:01:23;7.65;;;4.25;;
3815;SDS011;1923;48.154;11.536;2023-05-19T05:03:51;8.20;;;4.17;;
3815;SDS011;1923;48.154;11.536;2023-05-19T05:06:21;8.77;;;4.25;;
3815;SDS011;1923;48.154;11.536;2023-05-19T05:08:49;6.93;;;4.57;;
3815;SDS011;1923;48.154;11.536;2023-05-19T05:11:19;8.80;;;4.77;;
3815;SDS011;1923;48.154;11.536;2023-05-19T05:13:48;8.20;;;4.00;;
3815;SDS011;1923;48.154;11.536;2023-05-19T05:16:17;6.83;;;4.83;;
3815;SDS011;1923;48.154;11.536;2023-05-19T05:18:45;9.33;;;4.80;;
3815;SDS011;1923;48.154;11.536;2023-05-19T05:21:14;10.38;;;4.80;;
3815;SDS011;1923;48.154;11.536;2023-05-19T05:23:42;8.20;;;4.97;;
3815;SDS011;1923;48.154;11.536;2023-05-19T05:26:14;8.10;;;4.30;;
3815;SDS011;1923;48.154;11.536;2023-05-19T05:28:46;8.27;;;4.60;;
3815;SDS011;1923;48.154;11.536;2023-05-19T05:31:14;10.10;;;4.30;;
3815;SDS011;1923;48.154;11.536;2023-05-19T05:33:42;6.57;;;4.57;;
3815;SDS011;1923;48.154;11.536;2023-05-19T05:36:10;12.60;;;5.13;;
3815;SDS011;1923;48.154;11.536;2023-05-19T05:38:38;8.33;;;4.30;;
3815;SDS011;1923;48.154;11.536;2023-05-19T05:41:07;8.07;;;4.07;;
3815;SDS011;1923;48.154;11.536;2023-05-19T05:43:35;9.50;;;5.20;;
3815;SDS011;1923;48.154;11.536;2023-05-19T05:46:04;9.90;;;5.10;;
3815;SDS011;1923;48.154;11.536;2023-05-19T05:48:32;8.60;;;4.50;;
3815;SDS011;1923;48.154;11.536;2023-05-19T05:51:01;6.13;;;4.17;;
3815;SDS011;1923;48.154;11.536;2023-05-19T05:53:30;6.43;;;4.00;;
3815;SDS011;1923;48.154;11.536;2023-05-19T05:56:03;8.07;;;4.60;;
3815;SDS011;1923;48.154;11.536;2023-05-19T05:58:33;11.60;;;4.40;;
3815;SDS011;1923;48.154;11.536;2023-05-19T06:01:04;6.60;;;4.20;;
3815;SDS011;1923;48.154;11.536;2023-05-19T06:03:36;8.60;;;4.30;;
3815;SDS011;1923;48.154;11.536;2023-05-19T06:06:05;8.03;;;4.10;;
3815;SDS011;1923;48.154;11.536;2023-05-19T06:08:33;9.40;;;4.23;;
3815;SDS011;1923;48.154;11.536;2023-05-19T06:11:02;6.33;;;3.70;;
3815;SDS011;1923;48.154;11.536;2023-05-19T06:13:33;12.33;;;4.23;;
3815;SDS011;1923;48.154;11.536;2023-05-19T06:16:02;5.63;;;3.70;;
3815;SDS011;1923;48.154;11.536;2023-05-19T06:18:32;6.70;;;4.20;;
3815;SDS011;1923;48.154;11.536;2023-05-19T06:21:00;5.03;;;3.73;;
3815;SDS011;1923;48.154;11.536;2023-05-19T06:23:29;9.20;;;4.60;;
3815;SDS011;1923;48.154;11.536;2023-05-19T06:25:57;6.83;;;4.47;;
3815;SDS011;1923;48.154;11.536;2023-05-19T06:28:25;6.00;;;4.27;;
3815;SDS011;1923;48.154;11.536;2023-05-19T06:30:53;5.90;;;3.80;;
3815;SDS011;1923;48.154;11.536;2023-05-19T06:33:21;9.23;;;4.10;;
3815;SDS011;1923;48.154;11.536;2023-05-19T06:35:54;7.93;;;4.17;;
3815;SDS011;1923;48.154;11.536;2023-05-19T06:38:22;11.03;;;4.10;;
3815;SDS011;1923;48.154;11.536;2023-05-19T06:40:50;8.93;;;4.10;;
3815;SDS011;1923;48.154;11.536;2023-05-19T06:43:18;7.87;;;3.53;;
3815;SDS011;1923;48.154;11.536;2023-05-19T06:45:46;5.20;;;3.63;;
3815;SDS011;1923;48.154;11.536;2023-05-19T06:48:14;6.90;;;3.03;;
3815;SDS011;1923;48.154;11.536;2023-05-19T06:50:42;7.70;;;3.93;;
3815;SDS011;1923;48.154;11.536;2023-05-19T06:53:11;7.37;;;3.67;;
3815;SDS011;1923;48.154;11.536;2023-05-19T06:55:39;7.57;;;4.53;;
3815;SDS011;1923;48.154;11.536;2023-05-19T06:58:23;4.17;;;3.20;;
3815;SDS011;1923;48.154;11.536;2023-05-19T07:00:51;4.57;;;4.10;;
3815;SDS011;1923;48.154;11.536;2023-05-19T07:03:19;6.27;;;3.80;;
3815;SDS011;1923;48.154;11.536;2023-05-19T07:05:48;5.77;;;3.30;;
3815;SDS011;1923;48.154;11.536;2023-05-19T07:08:17;5.07;;;3.60;;
3815;SDS011;1923;48.154;11.536;2023-05-19T07:10:45;10.50;;;3.60;;
3815;SDS011;1923;48.154;11.536;2023-05-19T07:13:13;4.80;;;3.17;;
3815;SDS011;1923;48.154;11.536;2023-05-19T07:15:41;3.80;;;2.80;;
3815;SDS011;1923;48.154;11.536;2023-05-19T07:18:09;5.60;;;3.10;;
3815;SDS011;1923;48.154;11.536;2023-05-19T07:20:38;4.40;;;3.57;;
3815;SDS011;1923;48.154;11.536;2023-05-19T07:23:06;6.20;;;3.07;;
3815;SDS011;1923;48.154;11.536;2023-05-19T07:25:35;3.57;;;2.60;;
3815;SDS011;1923;48.154;11.536;2023-05-19T07:28:03;4.37;;;3.00;;
3815;SDS011;1923;48.154;11.536;2023-05-19T07:30:31;4.73;;;2.60;;
3815;SDS011;1923;48.154;11.536;2023-05-19T07:33:00;4.77;;;2.80;;
3815;SDS011;1923;48.154;11.536;2023-05-19T07:35:28;6.70;;;3.57;;
3815;SDS011;1923;48.154;11.536;2023-05-19T07:37:56;7.83;;;4.00;;
3815;SDS011;1923;48.154;11.536;2023-05-19T07:40:24;6.77;;;4.50;;
3815;SDS011;1923;48.154;11.536;2023-05-19T07:42:54;6.03;;;3.83;;
3815;SDS011;1923;48.154;11.536;2023-05-19T07:45:22;6.00;;;3.47;;
3815;SDS011;1923;48.154;11.536;2023-05-19T07:47:50;5.70;;;3.60;;
3815;SDS011;1923;48.154;11.536;2023-05-19T07:50:19;7.27;;;4.53;;
3815;SDS011;1923;48.154;11.536;2023-05-19T07:52:48;7.00;;;4.27;;
3815;SDS011;1923;48.154;11.536;2023-05-19T07:55:16;6.53;;;3.77;;
3815;SDS011;1923;48.154;11.536;2023-05-19T07:57:44;7.77;;;4.37;;
3815;SDS011;1923;48.154;11.536;2023-05-19T08:00:14;4.67;;;3.10;;
3815;SDS011;1923;48.154;11.536;2023-05-19T08:02:43;6.03;;;4.00;;
3815;SDS011;1923;48.154;11.536;2023-05-19T08:05:11;7.33;;;4.13;;
3815;SDS011;1923;48.154;11.536;2023-05-19T08:07:40;6.03;;;4.63;;
3815;SDS011;1923;48.154;11.536;2023-05-19T08:10:08;8.23;;;4.80;;
3815;SDS011;1923;48.154;11.536;2023-05-19T08:12:36;6.77;;;4.70;;
3815;SDS011;1923;48.154;11.536;2023-05-19T08:15:04;8.13;;;4.37;;
3815;SDS011;1923;48.154;11.536;2023-05-19T08:17:34;9.30;;;4.27;;
3815;SDS011;1923;48.154;11.536;2023-05-19T08:20:03;8.27;;;3.87;;
3815;SDS011;1923;48.154;11.536;2023-05-19T08:22:33;8.13;;;4.70;;
3815;SDS011;1923;48.154;11.536;2023-05-19T08:25:02;5.10;;;4.60;;
3815;SDS011;1923;48.154;11.536;2023-05-19T08:27:31;7.20;;;4.10;;
3815;SDS011;1923;48.154;11.536;2023-05-19T08:30:00;8.20;;;4.30;;
3815;SDS011;1923;48.154;11.536;2023-05-19T08:32:28;5.73;;;4.53;;
3815;SDS011;1923;48.154;11.536;2023-05-19T08:34:57;6.40;;;5.10;;
3815;SDS011;1923;48.154;11.536;2023-05-19T08:37:25;6.33;;;4.60;;
3815;SDS011;1923;48.154;11.536;2023-05-19T08:39:53;8.90;;;5.17;;
3815;SDS011;1923;48.154;11.536;2023-05-19T08:42:22;7.20;;;4.60;;
3815;SDS011;1923;48.154;11.536;2023-05-19T08:44:50;11.67;;;5.70;;
3815;SDS011;1923;48.154;11.536;2023-05-19T08:47:18;8.20;;;4.57;;
3815;SDS011;1923;48.154;11.536;2023-05-19T08:49:46;8.13;;;5.23;;
3815;SDS011;1923;48.154;11.536;2023-05-19T08:52:24;5.77;;;4.23;;
3815;SDS011;1923;48.154;11.536;2023-05-19T08:54:59;9.93;;;4.73;;
3815;SDS011;1923;48.154;11.536;2023-05-19T08:57:31;7.63;;;4.40;;
3815;SDS011;1923;48.154;11.536;2023-05-19T09:00:00;8.60;;;5.47;;
3815;SDS011;1923;48.154;11.536;2023-05-19T09:02:31;9.17;;;4.47;;
3815;SDS011;1923;48.154;11.536;2023-05-19T09:05:00;4.77;;;3.93;;
3815;SDS011;1923;48.154;11.536;2023-05-19T09:07:30;6.10;;;4.47;;
3815;SDS011;1923;48.154;11.536;2023-05-19T09:10:00;9.23;;;5.17;;
3815;SDS011;1923;48.154;11.536;2023-05-19T09:12:28;7.50;;;4.93;;
3815;SDS011;1923;48.154;11.536;2023-05-19T09:14:57;9.23;;;4.40;;
3815;SDS011;1923;48.154;11.536;2023-05-19T09:17:25;9.57;;;4.63;;
3815;SDS011;1923;48.154;11.536;2023-05-19T09:19:53;10.50;;;4.33;;
3815;SDS011;1923;48.154;11.536;2023-05-19T09:22:21;4.87;;;4.23;;
3815;SDS011;1923;48.154;11.536;2023-05-19T09:24:52;6.37;;;4.40;;
3815;SDS011;1923;48.154;11.536;2023-05-19T09:27:20;7.00;;;5.23;;
3815;SDS011;1923;48.154;11.536;2023-05-19T09:29:50;7.47;;;5.00;;
3815;SDS011;1923;48.154;11.536;2023-05-19T09:32:25;8.27;;;4.13;;
3815;SDS011;1923;48.154;11.536;2023-05-19T09:34:53;9.70;;;5.10;;
3815;SDS011;1923;48.154;11.536;2023-05-19T09:37:22;5.43;;;4.37;;
3815;SDS011;1923;48.154;11.536;2023-05-19T09:39:52;7.37;;;5.13;;
3815;SDS011;1923;48.154;11.536;2023-05-19T09:42:24;7.97;;;4.47;;
3815;SDS011;1923;48.154;11.536;2023-05-19T09:44:57;5.13;;;4.20;;
3815;SDS011;1923;48.154;11.536;2023-05-19T09:47:27;8.37;;;5.20;;
3815;SDS011;1923;48.154;11.536;2023-05-19T09:49:59;5.63;;;4.20;;
3815;SDS011;1923;48.154;11.536;2023-05-19T09:52:27;8.23;;;4.43;;
3815;SDS011;1923;48.154;11.536;2023-05-19T09:54:56;8.93;;;4.87;;
3815;SDS011;1923;48.154;11.536;2023-05-19T09:57:25;7.30;;;4.67;;
3815;SDS011;1923;48.154;11.536;2023-05-19T09:59:54;6.30;;;4.73;;
3815;SDS011;1923;48.154;11.536;2023-05-19T10:02:23;7.00;;;5.00;;
3815;SDS011;1923;48.154;11.536;2023-05-19T10:04:52;7.33;;;4.57;;
3815;SDS011;1923;48.154;11.536;2023-05-19T10:07:21;8.40;;;4.67;;
3815;SDS011;1923;48.154;11.536;2023-05-19T10:09:51;5.13;;;4.40;;
3815;SDS011;1923;48.154;11.536;2023-05-19T10:12:24;6.83;;;5.27;;
3815;SDS011;1923;48.154;11.536;2023-05-19T10:14:53;7.43;;;4.63;;
3815;SDS011;1923;48.154;11.536;2023-05-19T10:17:22;10.17;;;5.90;;
3815;SDS011;1923;48.154;11.536;2023-05-19T10:19:52;9.20;;;5.00;;
3815;SDS011;1923;48.154;11.536;2023-05-19T10:22:21;5.50;;;4.50;;
3815;SDS011;1923;48.154;11.536;2023-05-19T10:24:49;8.20;;;5.07;;
3815;SDS011;1923;48.154;11.536;2023-05-19T10:27:17;8.10;;;5.20;;
3815;SDS011;1923;48.154;11.536;2023-05-19T10:29:48;7.10;;;4.97;;
3815;SDS011;1923;48.154;11.536;2023-05-19T10:32:18;8.20;;;5.60;;
3815;SDS011;1923;48.154;11.536;2023-05-19T10:34:56;7.63;;;5.50;;
3815;SDS011;1923;48.154;11.536;2023-05-19T10:37:36;7.70;;;5.13;;
3815;SDS011;1923;48.154;11.536;2023-05-19T10:40:17;7.90;;;5.10;;
3815;SDS011;1923;48.154;11.536;2023-05-19T10:42:52;7.90;;;5.40;;
3815;SDS011;1923;48.154;11.536;2023-05-19T10:45:38;9.07;;;5.53;;
3815;SDS011;1923;48.154;11.536;2023-05-19T10:48:12;9.20;;;5.70;;
3815;SDS011;1923;48.154;11.536;2023-05-19T10:50:42;9.37;;;5.07;;
3815;SDS011;1923;48.154;11.536;2023-05-19T10:53:14;10.20;;;5.60;;
3815;SDS011;1923;48.154;11.536;2023-05-19T10:55:48;8.50;;;5.63;;
3815;SDS011;1923;48.154;11.536;2023-05-19T10:58:35;8.77;;;5.60;;
3815;SDS011;1923;48.154;11.536;2023-05-19T11:01:08;9.17;;;5.27;;
3815;SDS011;1923;48.154;11.536;2023-05-19T11:03:43;8.97;;;5.70;;
3815;SDS011;1923;48.154;11.536;2023-05-19T11:06:20;10.67;;;6.30;;
3815;SDS011;1923;48.154;11.536;2023-05-19T11:08:51;9.20;;;6.23;;
3815;SDS011;1923;48.154;11.536;2023-05-19T11:11:21;9.88;;;5.53;;
3815;SDS011;1923;48.154;11.536;2023-05-19T11:13:49;6.83;;;5.50;;
3815;SDS011;1923;48.154;11.536;2023-05-19T11:16:20;12.20;;;7.00;;
3815;SDS011;1923;48.154;11.536;2023-05-19T11:18:54;8.50;;;5.80;;
3815;SDS011;1923;48.154;11.536;2023-05-19T11:21:22;9.53;;;6.20;;
3815;SDS011;1923;48.154;11.536;2023-05-19T11:23:50;11.90;;;6.07;;
3815;SDS011;1923;48.154;11.536;2023-05-19T11:29:07;9.00;;;5.97;;
3815;SDS011;1923;48.154;11.536;2023-05-19T11:31:36;9.10;;;5.60;;
3815;SDS011;1923;48.154;11.536;2023-05-19T11:34:06;9.03;;;6.13;;
3815;SDS011;1923;48.154;11.536;2023-05-19T11:36:35;10.70;;;6.60;;
3815;SDS011;1923;48.154;11.536;2023-05-19T11:39:05;9.17;;;5.80;;
3815;SDS011;1923;48.154;11.536;2023-05-19T11:41:37;7.97;;;5.37;;
3815;SDS011;1923;48.154;11.536;2023-05-19T11:44:08;11.57;;;6.45;;
3815;SDS011;1923;48.154;11.536;2023-05-19T11:46:38;9.38;;;6.10;;
3815;SDS011;1923;48.154;11.536;2023-05-19T11:49:06;8.70;;;5.37;;
3815;SDS011;1923;48.154;11.536;2023-05-19T11:51:35;10.17;;;5.93;;
3815;SDS011;1923;48.154;11.536;2023-05-19T11:54:04;6.80;;;5.10;;
3815;SDS011;1923;48.154;11.536;2023-05-19T11:56:32;10.60;;;6.27;;
3815;SDS011;1923;48.154;11.536;2023-05-19T11:59:01;8.47;;;6.13;;
3815;SDS011;1923;48.154;11.536;2023-05-19T12:01:30;8.90;;;6.20;;
3815;SDS011;1923;48.154;11.536;2023-05-19T12:04:01;10.47;;;5.93;;
3815;SDS011;1923;48.154;11.536;2023-05-19T12:06:29;10.40;;;6.40;;
3815;SDS011;1923;48.154;11.536;2023-05-19T12:08:58;14.93;;;7.83;;
3815;SDS011;1923;48.154;11.536;2023-05-19T12:11:26;10.83;;;5.80;;
3815;SDS011;1923;48.154;11.536;2023-05-19T12:13:57;14.13;;;8.67;;
3815;SDS011;1923;48.154;11.536;2023-05-19T12:16:31;9.37;;;6.90;;
3815;SDS011;1923;48.154;11.536;2023-05-19T12:19:03;9.60;;;6.37;;
3815;SDS011;1923;48.154;11.536;2023-05-19T12:21:35;11.70;;;6.77;;
3815;SDS011;1923;48.154;11.536;2023-05-19T12:24:03;10.23;;;6.60;;
3815;SDS011;1923;48.154;11.536;2023-05-19T12:26:33;11.43;;;7.10;;
3815;SDS011;1923;48.154;11.536;2023-05-19T12:29:03;12.10;;;7.60;;
3815;SDS011;1923;48.154;11.536;2023-05-19T12:31:33;10.77;;;7.17;;
3815;SDS011;1923;48.154;11.536;2023-05-19T12:34:02;10.43;;;6.70;;
3815;SDS011;1923;48.154;11.536;2023-05-19T12:36:30;9.60;;;5.80;;
3815;SDS011;1923;48.154;11.536;2023-05-19T12:38:59;11.30;;;6.07;;
3815;SDS011;1923;48.154;11.536;2023-05-19T12:41:27;10.67;;;7.57;;
3815;SDS011;1923;48.154;11.536;2023-05-19T12:43:56;10.77;;;7.10;;
3815;SDS011;1923;48.154;11.536;2023-05-19T12:46:24;12.40;;;6.87;;
3815;SDS011;1923;48.154;11.536;2023-05-19T12:48:52;12.70;;;6.73;;
3815;SDS011;1923;48.154;11.536;2023-05-19T12:51:27;11.70;;;6.77;;
3815;SDS011;1923;48.154;11.536;2023-05-19T12:53:55;13.40;;;7.03;;
3815;SDS011;1923;48.154;11.536;2023-05-19T12:56:24;9.00;;;6.10;;
3815;SDS011;1923;48.154;11.536;2023-05-19T12:58:53;13.83;;;7.00;;
3815;SDS011;1923;48.154;11.536;2023-05-19T13:01:21;10.93;;;6.40;;
3815;SDS011;1923;48.154;11.536;2023-05-19T13:03:50;11.30;;;6.80;;
3815;SDS011;1923;48.154;11.536;2023-05-19T13:06:19;7.20;;;5.30;;
3815;SDS011;1923;48.154;11.536;2023-05-19T13:08:48;9.73;;;6.23;;
3815;SDS011;1923;48.154;11.536;2023-05-19T13:11:16;9.83;;;5.87;;
3815;SDS011;1923;48.154;11.536;2023-05-19T13:13:44;9.90;;;6.30;;
3815;SDS011;1923;48.154;11.536;2023-05-19T13:16:12;10.43;;;7.00;;
3815;SDS011;1923;48.154;11.536;2023-05-19T13:18:40;9.93;;;6.80;;
3815;SDS011;1923;48.154;11.536;2023-05-19T13:21:09;7.77;;;6.73;;
3815;SDS011;1923;48.154;11.536;2023-05-19T13:23:37;9.73;;;6.80;;
3815;SDS011;1923;48.154;11.536;2023-05-19T13:26:06;10.17;;;7.40;;
3815;SDS011;1923;48.154;11.536;2023-05-19T13:28:36;13.97;;;6.70;;
3815;SDS011;1923;48.154;11.536;2023-05-19T13:31:04;10.40;;;5.50;;
3815;SDS011;1923;48.154;11.536;2023-05-19T13:33:32;11.00;;;6.27;;
3815;SDS011;1923;48.154;11.536;2023-05-19T13:36:00;9.37;;;6.03;;
3815;SDS011;1923;48.154;11.536;2023-05-19T13:38:28;12.67;;;6.07;;
3815;SDS011;1923;48.154;11.536;2023-05-19T13:40:56;9.57;;;6.20;;
3815;SDS011;1923;48.154;11.536;2023-05-19T13:43:26;8.50;;;6.20;;
3815;SDS011;1923;48.154;11.536;2023-05-19T13:45:54;14.00;;;6.13;;
3815;SDS011;1923;48.154;11.536;2023-05-19T13:48:22;17.70;;;7.07;;
3815;SDS011;1923;48.154;11.536;2023-05-19T13:50:51;10.10;;;6.60;;
3815;SDS011;1923;48.154;11.536;2023-05-19T13:53:20;8.53;;;6.27;;
3815;SDS011;1923;48.154;11.536;2023-05-19T13:55:49;8.90;;;6.50;;
3815;SDS011;1923;48.154;11.536;2023-05-19T13:58:18;10.47;;;5.90;;
3815;SDS011;1923;48.154;11.536;2023-05-19T14:00:47;12.67;;;6.50;;
3815;SDS011;1923;48.154;11.536;2023-05-19T14:03:19;10.77;;;6.70;;
3815;SDS011;1923;48.154;11.536;2023-05-19T14:05:48;10.53;;;7.10;;
3815;SDS011;1923;48.154;11.536;2023-05-19T14:08:17;10.13;;;6.30;;
3815;SDS011;1923;48.154;11.536;2023-05-19T14:10:45;11.37;;;6.40;;
3815;SDS011;1923;48.154;11.536;2023-05-19T14:13:13;10.20;;;6.40;;
3815;SDS011;1923;48.154;11.536;2023-05-19T14:16:00;10.47;;;6.47;;
3815;SDS011;1923;48.154;11.536;2023-05-19T14:18:29;11.70;;;6.67;;
3815;SDS011;1923;48.154;11.536;2023-05-19T14:20:58;9.50;;;6.30;;
3815;SDS011;1923;48.154;11.536;2023-05-19T14:23:26;8.20;;;6.00;;
3815;SDS011;1923;48.154;11.536;2023-05-19T14:25:55;10.27;;;6.03;;
3815;SDS011;1923;48.154;11.536;2023-05-19T14:28:23;7.80;;;5.78;;
3815;SDS011;1923;48.154;11.536;2023-05-19T14:30:51;10.57;;;6.17;;
3815;SDS011;1923;48.154;11.536;2023-05-19T14:33:21;10.27;;;6.33;;
3815;SDS011;1923;48.154;11.536;2023-05-19T14:35:49;11.23;;;5.97;;
3815;SDS011;1923;48.154;11.536;2023-05-19T14:38:19;10.82;;;6.60;;
3815;SDS011;1923;48.154;11.536;2023-05-19T14:40:46;8.33;;;6.07;;
3815;SDS011;1923;48.154;11.536;2023-05-19T14:43:14;13.87;;;6.20;;
3815;SDS011;1923;48.154;11.536;2023-05-19T14:45:42;9.70;;;5.70;;
3815;SDS011;1923;48.154;11.536;2023-05-19T14:48:10;10.53;;;6.63;;
3815;SDS011;1923;48.154;11.536;2023-05-19T14:50:40;8.35;;;5.60;;
3815;SDS011;1923;48.154;11.536;2023-05-19T14:53:08;11.10;;;5.80;;
3815;SDS011;1923;48.154;11.536;2023-05-19T14:55:36;9.53;;;5.60;;
3815;SDS011;1923;48.154;11.536;2023-05-19T14:58:04;7.80;;;5.87;;
3815;SDS011;1923;48.154;11.536;2023-05-19T15:00:52;10.07;;;6.63;;
3815;SDS011;1923;48.154;11.536;2023-05-19T15:03:20;11.00;;;6.23;;
3815;SDS011;1923;48.154;11.536;2023-05-19T15:05:50;9.27;;;5.63;;
3815;SDS011;1923;48.154;11.536;2023-05-19T15:08:18;9.70;;;6.20;;
3815;SDS011;1923;48.154;11.536;2023-05-19T15:10:47;10.23;;;6.20;;
3815;SDS011;1923;48.154;11.536;2023-05-19T15:13:15;10.40;;;6.70;;
3815;SDS011;1923;48.154;11.536;2023-05-19T15:15:44;9.00;;;5.40;;
3815;SDS011;1923;48.154;11.536;2023-05-19T15:18:12;10.13;;;6.10;;